sensor_id;sensor_type;location;lat;lon;timestamp;pressure;altitude;pressure_sealevel;temperature
43802;BMP280;29429;51.074;13.764;2022-09-09T00:04:31;99617.09;;;15.41
43802;BMP280;29429;51.074;13.764;2022-09-09T00:07:40;99622.16;;;15.38
43802;BMP280;29429;51.074;13.764;2022-09-09T00:10:31;99618.16;;;15.40
43802;BMP280;29429;51.074;13.764;2022-09-09T00:13:37;99618.97;;;15.41
43802;BMP280;29429;51.074;13.764;2022-09-09T00:16:22;99613.81;;;15.39
43802;BMP280;29429;51.074;13.764;2022-09-09T00:19:02;99615.13;;;15.37
43802;BMP280;29429;51.074;13.764;2022-09-09T00:24:42;99615.03;;;15.32
43802;BMP280;29429;51.074;13.764;2022-09-09T00:27:45;99605.91;;;15.33
43802;BMP280;29429;51.074;13.764;2022-09-09T00:30:21;99594.81;;;15.29
43802;BMP280;29429;51.074;13.764;2022-09-09T00:32:58;99608.38;;;15.22
43802;BMP280;29429;51.074;13.764;2022-09-09T00:35:40;99605.00;;;15.27
43802;BMP280;29429;51.074;13.764;2022-09-09T00:38:32;99610.94;;;15.29
43802;BMP280;29429;51.074;13.764;2022-09-09T00:41:22;99617.38;;;15.28
43802;BMP280;29429;51.074;13.764;2022-09-09T00:53:23;99615.41;;;15.12
43802;BMP280;29429;51.074;13.764;2022-09-09T00:56:19;99607.03;;;15.08
43802;BMP280;29429;51.074;13.764;2022-09-09T01:02:22;99617.91;;;15.02
43802;BMP280;29429;51.074;13.764;2022-09-09T01:04:52;99615.00;;;14.92
43802;BMP280;29429;51.074;13.764;2022-09-09T01:07:19;99622.50;;;14.90
43802;BMP280;29429;51.074;13.764;2022-09-09T01:10:07;99629.25;;;14.92
43802;BMP280;29429;51.074;13.764;2022-09-09T01:12:46;99632.41;;;14.89
43802;BMP280;29429;51.074;13.764;2022-09-09T01:15:29;99620.38;;;14.92
43802;BMP280;29429;51.074;13.764;2022-09-09T01:18:10;99628.44;;;14.92
43802;BMP280;29429;51.074;13.764;2022-09-09T01:21:09;99622.94;;;14.87
43802;BMP280;29429;51.074;13.764;2022-09-09T01:27:18;99625.31;;;14.72
43802;BMP280;29429;51.074;13.764;2022-09-09T01:29:46;99627.75;;;14.73
43802;BMP280;29429;51.074;13.764;2022-09-09T01:32:41;99621.56;;;14.73
43802;BMP280;29429;51.074;13.764;2022-09-09T01:35:38;99625.31;;;14.72
43802;BMP280;29429;51.074;13.764;2022-09-09T01:38:07;99619.34;;;14.70
43802;BMP280;29429;51.074;13.764;2022-09-09T01:40:35;99619.22;;;14.64
43802;BMP280;29429;51.074;13.764;2022-09-09T01:43:03;99621.91;;;14.64
43802;BMP280;29429;51.074;13.764;2022-09-09T01:45:31;99614.47;;;14.67
43802;BMP280;29429;51.074;13.764;2022-09-09T01:47:59;99618.41;;;14.64
43802;BMP280;29429;51.074;13.764;2022-09-09T01:50:51;99614.94;;;14.63
43802;BMP280;29429;51.074;13.764;2022-09-09T01:53:21;99617.00;;;14.61
43802;BMP280;29429;51.074;13.764;2022-09-09T01:56:00;99616.53;;;14.64
43802;BMP280;29429;51.074;13.764;2022-09-09T02:04:39;99611.75;;;14.43
43802;BMP280;29429;51.074;13.764;2022-09-09T02:07:39;99603.38;;;14.40
43802;BMP280;29429;51.074;13.764;2022-09-09T02:13:17;99607.91;;;14.39
43802;BMP280;29429;51.074;13.764;2022-09-09T02:15:57;99610.59;;;14.39
43802;BMP280;29429;51.074;13.764;2022-09-09T02:18:51;99609.78;;;14.39
43802;BMP280;29429;51.074;13.764;2022-09-09T02:21:31;99610.03;;;14.37
43802;BMP280;29429;51.074;13.764;2022-09-09T02:24:04;99613.75;;;14.36
43802;BMP280;29429;51.074;13.764;2022-09-09T02:26:41;99608.97;;;14.38
43802;BMP280;29429;51.074;13.764;2022-09-09T02:29:17;99614.31;;;14.27
43802;BMP280;29429;51.074;13.764;2022-09-09T02:31:48;99611.38;;;14.28
43802;BMP280;29429;51.074;13.764;2022-09-09T02:34:23;99612.66;;;14.26
43802;BMP280;29429;51.074;13.764;2022-09-09T02:36:56;99609.72;;;14.27
43802;BMP280;29429;51.074;13.764;2022-09-09T02:39:24;99619.75;;;14.20
43802;BMP280;29429;51.074;13.764;2022-09-09T02:41:52;99614.50;;;14.25
43802;BMP280;29429;51.074;13.764;2022-09-09T02:44:27;99614.50;;;14.25
43802;BMP280;29429;51.074;13.764;2022-09-09T02:47:43;99619.66;;;14.27
43802;BMP280;29429;51.074;13.764;2022-09-09T02:50:23;99606.00;;;14.28
43802;BMP280;29429;51.074;13.764;2022-09-09T02:53:16;99614.75;;;14.24
43802;BMP280;29429;51.074;13.764;2022-09-09T02:58:22;99612.66;;;14.26
43802;BMP280;29429;51.074;13.764;2022-09-09T03:00:58;99607.28;;;14.26
43802;BMP280;29429;51.074;13.764;2022-09-09T03:03:29;99622.00;;;14.23
43802;BMP280;29429;51.074;13.764;2022-09-09T03:05:58;99604.25;;;14.22
43802;BMP280;29429;51.074;13.764;2022-09-09T03:08:26;99619.31;;;14.23
43802;BMP280;29429;51.074;13.764;2022-09-09T03:10:59;99622.56;;;14.25
43802;BMP280;29429;51.074;13.764;2022-09-09T03:13:30;99622.00;;;14.23
43802;BMP280;29429;51.074;13.764;2022-09-09T03:15:57;99624.44;;;14.13
43802;BMP280;29429;51.074;13.764;2022-09-09T03:18:25;99622.31;;;14.15
43802;BMP280;29429;51.074;13.764;2022-09-09T03:20:53;99624.66;;;14.23
43802;BMP280;29429;51.074;13.764;2022-09-09T03:23:21;99620.13;;;14.24
43802;BMP280;29429;51.074;13.764;2022-09-09T03:25:49;99622.09;;;14.28
43802;BMP280;29429;51.074;13.764;2022-09-09T03:28:24;99620.00;;;14.30
43802;BMP280;29429;51.074;13.764;2022-09-09T03:31:03;99627.03;;;14.31
43802;BMP280;29429;51.074;13.764;2022-09-09T03:33:36;99623.75;;;14.29
43802;BMP280;29429;51.074;13.764;2022-09-09T03:36:05;99625.75;;;14.34
43802;BMP280;29429;51.074;13.764;2022-09-09T03:38:34;99622.50;;;14.32
43802;BMP280;29429;51.074;13.764;2022-09-09T03:41:02;99620.63;;;14.32
43802;BMP280;29429;51.074;13.764;2022-09-09T03:43:29;99624.22;;;14.26
43802;BMP280;29429;51.074;13.764;2022-09-09T03:45:57;99615.59;;;14.24
43802;BMP280;29429;51.074;13.764;2022-09-09T03:48:26;99616.38;;;14.25
43802;BMP280;29429;51.074;13.764;2022-09-09T03:50:55;99616.63;;;14.23
43802;BMP280;29429;51.074;13.764;2022-09-09T03:53:25;99619.75;;;14.20
43802;BMP280;29429;51.074;13.764;2022-09-09T03:55:54;99624.09;;;14.21
43802;BMP280;29429;51.074;13.764;2022-09-09T03:58:26;99621.88;;;14.18
43802;BMP280;29429;51.074;13.764;2022-09-09T04:01:05;99620.00;;;14.19
43802;BMP280;29429;51.074;13.764;2022-09-09T04:03:33;99624.19;;;14.15
43802;BMP280;29429;51.074;13.764;2022-09-09T04:06:02;99624.19;;;14.15
43802;BMP280;29429;51.074;13.764;2022-09-09T04:08:31;99622.31;;;14.15
43802;BMP280;29429;51.074;13.764;2022-09-09T04:11:00;99621.50;;;14.15
43802;BMP280;29429;51.074;13.764;2022-09-09T04:13:29;99629.34;;;14.16
43802;BMP280;29429;51.074;13.764;2022-09-09T04:15:59;99622.31;;;14.15
43802;BMP280;29429;51.074;13.764;2022-09-09T04:18:28;99625.59;;;14.17
43802;BMP280;29429;51.074;13.764;2022-09-09T04:20:56;99623.97;;;14.16
43802;BMP280;29429;51.074;13.764;2022-09-09T04:23:27;99621.88;;;14.18
43802;BMP280;29429;51.074;13.764;2022-09-09T04:26:00;99624.66;;;14.23
43802;BMP280;29429;51.074;13.764;2022-09-09T04:28:34;99628.84;;;14.19
43802;BMP280;29429;51.074;13.764;2022-09-09T04:31:13;99626.91;;;14.26
43802;BMP280;29429;51.074;13.764;2022-09-09T04:33:41;99623.16;;;14.27
43802;BMP280;29429;51.074;13.764;2022-09-09T04:36:09;99632.59;;;14.30
43802;BMP280;29429;51.074;13.764;2022-09-09T04:38:37;99630.97;;;14.29
43802;BMP280;29429;51.074;13.764;2022-09-09T04:41:05;99627.03;;;14.31
43802;BMP280;29429;51.074;13.764;2022-09-09T04:43:35;99627.03;;;14.31
43802;BMP280;29429;51.074;13.764;2022-09-09T04:46:05;99628.19;;;14.35
43802;BMP280;29429;51.074;13.764;2022-09-09T04:48:33;99625.63;;;14.40
43802;BMP280;29429;51.074;13.764;2022-09-09T04:51:04;99629.97;;;14.41
43802;BMP280;29429;51.074;13.764;2022-09-09T04:53:33;99626.81;;;14.44
43802;BMP280;29429;51.074;13.764;2022-09-09T04:56:21;99629.63;;;14.49
43802;BMP280;29429;51.074;13.764;2022-09-09T04:58:54;99633.34;;;14.48
43802;BMP280;29429;51.074;13.764;2022-09-09T05:01:27;99634.75;;;14.51
43802;BMP280;29429;51.074;13.764;2022-09-09T05:04:02;99631.97;;;14.57
43802;BMP280;29429;51.074;13.764;2022-09-09T05:06:32;99624.03;;;14.62
43802;BMP280;29429;51.074;13.764;2022-09-09T05:09:00;99640.81;;;14.70
43802;BMP280;29429;51.074;13.764;2022-09-09T05:11:32;99634.06;;;14.79
43802;BMP280;29429;51.074;13.764;2022-09-09T05:14:14;99635.44;;;14.81
43802;BMP280;29429;51.074;13.764;2022-09-09T05:16:42;99635.09;;;14.89
43802;BMP280;29429;51.074;13.764;2022-09-09T05:19:11;99641.84;;;14.92
43802;BMP280;29429;51.074;13.764;2022-09-09T05:21:43;99634.72;;;14.97
43802;BMP280;29429;51.074;13.764;2022-09-09T05:24:11;99635.66;;;15.03
43802;BMP280;29429;51.074;13.764;2022-09-09T05:26:39;99641.13;;;15.08
43802;BMP280;29429;51.074;13.764;2022-09-09T05:29:07;99633.44;;;15.11
43802;BMP280;29429;51.074;13.764;2022-09-09T05:31:34;99646.25;;;15.21
43802;BMP280;29429;51.074;13.764;2022-09-09T05:34:06;99640.72;;;15.27
43802;BMP280;29429;51.074;13.764;2022-09-09T05:36:33;99645.88;;;15.29
43802;BMP280;29429;51.074;13.764;2022-09-09T05:39:00;99651.09;;;15.36
43802;BMP280;29429;51.074;13.764;2022-09-09T05:41:38;99653.41;;;15.44
43802;BMP280;29429;51.074;13.764;2022-09-09T05:44:07;99654.97;;;15.51
43802;BMP280;29429;51.074;13.764;2022-09-09T05:46:37;99655.06;;;15.56
43802;BMP280;29429;51.074;13.764;2022-09-09T05:49:05;99654.19;;;15.67
43802;BMP280;29429;51.074;13.764;2022-09-09T05:51:33;99655.44;;;15.76
43802;BMP280;29429;51.074;13.764;2022-09-09T05:54:06;99664.03;;;15.90
43802;BMP280;29429;51.074;13.764;2022-09-09T05:56:36;99663.16;;;16.01
43802;BMP280;29429;51.074;13.764;2022-09-09T05:59:10;99660.88;;;16.10
43802;BMP280;29429;51.074;13.764;2022-09-09T06:01:40;99661.06;;;16.20
43802;BMP280;29429;51.074;13.764;2022-09-09T06:04:21;99667.19;;;16.32
43802;BMP280;29429;51.074;13.764;2022-09-09T06:06:49;99658.44;;;16.41
43802;BMP280;29429;51.074;13.764;2022-09-09T06:09:18;99667.50;;;16.52
43802;BMP280;29429;51.074;13.764;2022-09-09T06:11:45;99669.34;;;16.63
43802;BMP280;29429;51.074;13.764;2022-09-09T06:14:14;99660.34;;;16.74
43802;BMP280;29429;51.074;13.764;2022-09-09T06:16:44;99665.59;;;16.81
43802;BMP280;29429;51.074;13.764;2022-09-09T06:19:22;99658.41;;;16.86
43802;BMP280;29429;51.074;13.764;2022-09-09T06:21:55;99660.63;;;16.94
43802;BMP280;29429;51.074;13.764;2022-09-09T06:24:22;99662.13;;;17.02
43802;BMP280;29429;51.074;13.764;2022-09-09T06:26:49;99663.22;;;17.06
43802;BMP280;29429;51.074;13.764;2022-09-09T06:29:21;99664.38;;;17.10
43802;BMP280;29429;51.074;13.764;2022-09-09T06:31:49;99666.25;;;17.10
43802;BMP280;29429;51.074;13.764;2022-09-09T06:34:21;99672.53;;;17.15
43802;BMP280;29429;51.074;13.764;2022-09-09T06:36:57;99666.00;;;17.11
43802;BMP280;29429;51.074;13.764;2022-09-09T06:39:29;99667.31;;;17.09
43802;BMP280;29429;51.074;13.764;2022-09-09T06:42:00;99661.91;;;17.09
43802;BMP280;29429;51.074;13.764;2022-09-09T06:44:49;99670.56;;;17.11
43802;BMP280;29429;51.074;13.764;2022-09-09T06:47:23;99663.06;;;17.13
43802;BMP280;29429;51.074;13.764;2022-09-09T06:49:51;99659.94;;;17.21
43802;BMP280;29429;51.074;13.764;2022-09-09T06:52:19;99665.19;;;17.32
43802;BMP280;29429;51.074;13.764;2022-09-09T06:54:46;99669.16;;;17.46
43802;BMP280;29429;51.074;13.764;2022-09-09T06:57:15;99660.44;;;17.61
43802;BMP280;29429;51.074;13.764;2022-09-09T07:00:06;99662.50;;;17.76
43802;BMP280;29429;51.074;13.764;2022-09-09T07:02:35;99655.13;;;17.93
43802;BMP280;29429;51.074;13.764;2022-09-09T07:05:07;99654.00;;;18.15
43802;BMP280;29429;51.074;13.764;2022-09-09T07:07:35;99655.25;;;18.35
43802;BMP280;29429;51.074;13.764;2022-09-09T07:10:03;99648.63;;;18.47
43802;BMP280;29429;51.074;13.764;2022-09-09T07:12:31;99644.13;;;18.58
43802;BMP280;29429;51.074;13.764;2022-09-09T07:15:03;99645.00;;;18.68
43802;BMP280;29429;51.074;13.764;2022-09-09T07:17:30;99646.72;;;18.79
43802;BMP280;29429;51.074;13.764;2022-09-09T07:19:59;99644.59;;;18.92
43802;BMP280;29429;51.074;13.764;2022-09-09T07:22:27;99649.31;;;19.11
43802;BMP280;29429;51.074;13.764;2022-09-09T07:24:55;99647.78;;;19.30
43802;BMP280;29429;51.074;13.764;2022-09-09T07:27:23;99641.91;;;19.43
43802;BMP280;29429;51.074;13.764;2022-09-09T07:29:51;99648.72;;;19.51
43802;BMP280;29429;51.074;13.764;2022-09-09T07:32:21;99650.09;;;19.59
43802;BMP280;29429;51.074;13.764;2022-09-09T07:34:48;99645.50;;;19.64
43802;BMP280;29429;51.074;13.764;2022-09-09T07:37:17;99634.41;;;19.66
43802;BMP280;29429;51.074;13.764;2022-09-09T07:39:45;99645.53;;;19.69
43802;BMP280;29429;51.074;13.764;2022-09-09T07:42:12;99649.59;;;19.72
43802;BMP280;29429;51.074;13.764;2022-09-09T07:44:42;99647.44;;;19.79
43802;BMP280;29429;51.074;13.764;2022-09-09T07:47:13;99642.03;;;19.84
43802;BMP280;29429;51.074;13.764;2022-09-09T07:49:46;99639.84;;;19.86
43802;BMP280;29429;51.074;13.764;2022-09-09T07:52:16;99651.78;;;19.90
43802;BMP280;29429;51.074;13.764;2022-09-09T07:54:49;99652.88;;;19.94
43802;BMP280;29429;51.074;13.764;2022-09-09T07:57:17;99649.63;;;19.97
43802;BMP280;29429;51.074;13.764;2022-09-09T07:59:46;99652.91;;;20.04
43802;BMP280;29429;51.074;13.764;2022-09-09T08:02:13;99652.91;;;20.14
43802;BMP280;29429;51.074;13.764;2022-09-09T08:04:41;99648.06;;;20.26
43802;BMP280;29429;51.074;13.764;2022-09-09T08:07:11;99648.06;;;20.41
43802;BMP280;29429;51.074;13.764;2022-09-09T08:09:44;99654.56;;;20.50
43802;BMP280;29429;51.074;13.764;2022-09-09T08:12:18;99654.00;;;20.69
43802;BMP280;29429;51.074;13.764;2022-09-09T08:14:45;99650.72;;;20.87
43802;BMP280;29429;51.074;13.764;2022-09-09T08:17:12;99650.41;;;21.03
43802;BMP280;29429;51.074;13.764;2022-09-09T08:19:39;99654.22;;;21.17
43802;BMP280;29429;51.074;13.764;2022-09-09T08:22:12;99655.25;;;21.27
43802;BMP280;29429;51.074;13.764;2022-09-09T08:24:39;99656.56;;;21.34
43802;BMP280;29429;51.074;13.764;2022-09-09T08:27:08;99659.84;;;21.36
43802;BMP280;29429;51.074;13.764;2022-09-09T08:29:37;99653.31;;;21.37
43802;BMP280;29429;51.074;13.764;2022-09-09T08:32:05;99660.09;;;21.40
43802;BMP280;29429;51.074;13.764;2022-09-09T08:34:33;99663.56;;;21.50
43802;BMP280;29429;51.074;13.764;2022-09-09T08:37:04;99666.78;;;21.62
43802;BMP280;29429;51.074;13.764;2022-09-09T08:39:36;99670.25;;;21.73
43802;BMP280;29429;51.074;13.764;2022-09-09T08:42:33;99662.88;;;21.83
43802;BMP280;29429;51.074;13.764;2022-09-09T08:45:31;99669.34;;;21.93
43802;BMP280;29429;51.074;13.764;2022-09-09T08:48:39;99666.00;;;22.06
43802;BMP280;29429;51.074;13.764;2022-09-09T08:51:10;99666.53;;;22.13
43802;BMP280;29429;51.074;13.764;2022-09-09T08:53:49;99662.34;;;22.25
43802;BMP280;29429;51.074;13.764;2022-09-09T08:56:27;99669.56;;;22.40
43802;BMP280;29429;51.074;13.764;2022-09-09T08:59:03;99658.53;;;22.60
43802;BMP280;29429;51.074;13.764;2022-09-09T09:07:23;99645.03;;;23.08
43802;BMP280;29429;51.074;13.764;2022-09-09T09:10:39;99654.81;;;23.09
43802;BMP280;29429;51.074;13.764;2022-09-09T09:19:22;99658.41;;;22.75
43802;BMP280;29429;51.074;13.764;2022-09-09T09:22:28;99665.28;;;22.68
43802;BMP280;29429;51.074;13.764;2022-09-09T09:25:22;99672.16;;;22.55
43802;BMP280;29429;51.074;13.764;2022-09-09T09:28:13;99682.94;;;22.36
43802;BMP280;29429;51.074;13.764;2022-09-09T09:31:05;99698.03;;;22.14
43802;BMP280;29429;51.074;13.764;2022-09-09T09:36:13;99697.66;;;21.76
43802;BMP280;29429;51.074;13.764;2022-09-09T09:38:59;99695.00;;;21.66
43802;BMP280;29429;51.074;13.764;2022-09-09T09:41:48;99696.63;;;21.67
43802;BMP280;29429;51.074;13.764;2022-09-09T09:44:30;99696.84;;;21.81
43802;BMP280;29429;51.074;13.764;2022-09-09T09:47:22;99694.13;;;21.86
43802;BMP280;29429;51.074;13.764;2022-09-09T09:50:18;99688.34;;;21.98
43802;BMP280;29429;51.074;13.764;2022-09-09T09:53:03;99680.88;;;22.18
43802;BMP280;29429;51.074;13.764;2022-09-09T09:56:00;99690.56;;;22.34
43802;BMP280;29429;51.074;13.764;2022-09-09T09:58:32;99691.28;;;22.45
43802;BMP280;29429;51.074;13.764;2022-09-09T10:01:01;99681.50;;;22.44
43802;BMP280;29429;51.074;13.764;2022-09-09T10:03:33;99681.47;;;22.49
43802;BMP280;29429;51.074;13.764;2022-09-09T10:06:06;99676.63;;;22.41
43802;BMP280;29429;51.074;13.764;2022-09-09T10:08:44;99671.75;;;22.38
43802;BMP280;29429;51.074;13.764;2022-09-09T10:11:50;99670.16;;;22.32
43802;BMP280;29429;51.074;13.764;2022-09-09T10:26:35;99664.22;;;22.30
43802;BMP280;29429;51.074;13.764;2022-09-09T10:32:12;99661.22;;;22.31
43802;BMP280;29429;51.074;13.764;2022-09-09T10:44:06;99651.78;;;22.19
43802;BMP280;29429;51.074;13.764;2022-09-09T10:53:02;99639.19;;;22.33
43802;BMP280;29429;51.074;13.764;2022-09-09T10:55:53;99639.63;;;22.45
43802;BMP280;29429;51.074;13.764;2022-09-09T10:58:51;99626.56;;;22.47
43802;BMP280;29429;51.074;13.764;2022-09-09T11:01:29;99621.59;;;22.54
43802;BMP280;29429;51.074;13.764;2022-09-09T11:04:11;99623.16;;;22.65
43802;BMP280;29429;51.074;13.764;2022-09-09T11:06:50;99615.75;;;22.71
43802;BMP280;29429;51.074;13.764;2022-09-09T11:09:25;99621.78;;;22.68
43802;BMP280;29429;51.074;13.764;2022-09-09T11:12:00;99620.72;;;22.64
43802;BMP280;29429;51.074;13.764;2022-09-09T11:14:43;99616.16;;;22.54
43802;BMP280;29429;51.074;13.764;2022-09-09T11:17:24;99607.50;;;22.52
43802;BMP280;29429;51.074;13.764;2022-09-09T11:19:53;99614.31;;;22.50
43802;BMP280;29429;51.074;13.764;2022-09-09T11:23:04;99611.28;;;22.51
43802;BMP280;29429;51.074;13.764;2022-09-09T11:25:40;99613.69;;;22.58
43802;BMP280;29429;51.074;13.764;2022-09-09T11:31:00;99613.66;;;22.63
43802;BMP280;29429;51.074;13.764;2022-09-09T11:42:43;99595.09;;;22.93
43802;BMP280;29429;51.074;13.764;2022-09-09T11:45:31;99582.31;;;23.18
43802;BMP280;29429;51.074;13.764;2022-09-09T11:48:03;99590.25;;;23.33
43802;BMP280;29429;51.074;13.764;2022-09-09T11:50:37;99598.63;;;23.41
43802;BMP280;29429;51.074;13.764;2022-09-09T11:53:24;99602.03;;;23.52
43802;BMP280;29429;51.074;13.764;2022-09-09T11:56:13;99610.34;;;23.60
43802;BMP280;29429;51.074;13.764;2022-09-09T11:59:23;99603.50;;;23.63
43802;BMP280;29429;51.074;13.764;2022-09-09T12:04:38;99592.53;;;23.68
43802;BMP280;29429;51.074;13.764;2022-09-09T12:07:41;99597.19;;;23.68
43802;BMP280;29429;51.074;13.764;2022-09-09T12:10:30;99585.69;;;23.71
43802;BMP280;29429;51.074;13.764;2022-09-09T12:13:22;99586.56;;;23.85
43802;BMP280;29429;51.074;13.764;2022-09-09T12:15:58;99583.84;;;23.85
43802;BMP280;29429;51.074;13.764;2022-09-09T12:18:38;99576.69;;;23.70
43802;BMP280;29429;51.074;13.764;2022-09-09T12:24:37;99570.31;;;23.42
43802;BMP280;29429;51.074;13.764;2022-09-09T12:27:45;99565.56;;;23.29
43802;BMP280;29429;51.074;13.764;2022-09-09T12:30:16;99574.13;;;23.18
43802;BMP280;29429;51.074;13.764;2022-09-09T12:32:43;99570.97;;;23.11
43802;BMP280;29429;51.074;13.764;2022-09-09T12:35:23;99565.59;;;23.06
43802;BMP280;29429;51.074;13.764;2022-09-09T12:38:00;99564.47;;;23.07
43802;BMP280;29429;51.074;13.764;2022-09-09T12:40:33;99572.56;;;23.12
43802;BMP280;29429;51.074;13.764;2022-09-09T12:43:21;99561.50;;;23.27
43802;BMP280;29429;51.074;13.764;2022-09-09T12:45:51;99563.38;;;23.50
43802;BMP280;29429;51.074;13.764;2022-09-09T12:48:36;99550.78;;;23.73
43802;BMP280;29429;51.074;13.764;2022-09-09T12:51:18;99554.16;;;23.83
43802;BMP280;29429;51.074;13.764;2022-09-09T12:53:46;99561.16;;;23.89
43802;BMP280;29429;51.074;13.764;2022-09-09T12:56:22;99558.78;;;24.01
43802;BMP280;29429;51.074;13.764;2022-09-09T12:58:56;99546.63;;;24.12
43802;BMP280;29429;51.074;13.764;2022-09-09T13:01:32;99546.16;;;24.24
43802;BMP280;29429;51.074;13.764;2022-09-09T13:04:02;99530.09;;;24.22
43802;BMP280;29429;51.074;13.764;2022-09-09T13:06:32;99530.09;;;24.22
43802;BMP280;29429;51.074;13.764;2022-09-09T13:09:01;99535.28;;;24.05
43802;BMP280;29429;51.074;13.764;2022-09-09T13:11:42;99533.91;;;23.89
43802;BMP280;29429;51.074;13.764;2022-09-09T13:14:32;99527.41;;;23.72
43802;BMP280;29429;51.074;13.764;2022-09-09T13:17:05;99523.47;;;23.59
43802;BMP280;29429;51.074;13.764;2022-09-09T13:19:37;99521.66;;;23.54
43802;BMP280;29429;51.074;13.764;2022-09-09T13:22:26;99513.88;;;23.48
43802;BMP280;29429;51.074;13.764;2022-09-09T13:25:29;99522.03;;;23.48
43802;BMP280;29429;51.074;13.764;2022-09-09T13:28:04;99522.25;;;23.51
43802;BMP280;29429;51.074;13.764;2022-09-09T13:30:35;99512.91;;;23.57
43802;BMP280;29429;51.074;13.764;2022-09-09T13:35:57;99514.22;;;23.60
43802;BMP280;29429;51.074;13.764;2022-09-09T13:38:31;99511.25;;;23.56
43802;BMP280;29429;51.074;13.764;2022-09-09T13:41:00;99512.16;;;23.52
43802;BMP280;29429;51.074;13.764;2022-09-09T13:43:44;99521.66;;;23.54
43802;BMP280;29429;51.074;13.764;2022-09-09T13:46:37;99530.13;;;23.53
43802;BMP280;29429;51.074;13.764;2022-09-09T13:51:42;99525.19;;;23.55
43802;BMP280;29429;51.074;13.764;2022-09-09T13:54:18;99524.59;;;23.58
43802;BMP280;29429;51.074;13.764;2022-09-09T13:56:46;99528.34;;;23.62
43802;BMP280;29429;51.074;13.764;2022-09-09T13:59:19;99534.25;;;23.69
43802;BMP280;29429;51.074;13.764;2022-09-09T14:01:47;99533.66;;;23.72
43802;BMP280;29429;51.074;13.764;2022-09-09T14:04:15;99533.94;;;23.71
43802;BMP280;29429;51.074;13.764;2022-09-09T14:06:43;99517.31;;;23.72
43802;BMP280;29429;51.074;13.764;2022-09-09T14:09:18;99518.09;;;23.73
43802;BMP280;29429;51.074;13.764;2022-09-09T14:11:48;99512.06;;;23.76
43802;BMP280;29429;51.074;13.764;2022-09-09T14:14:15;99516.63;;;23.80
43802;BMP280;29429;51.074;13.764;2022-09-09T14:16:42;99515.75;;;23.85
43802;BMP280;29429;51.074;13.764;2022-09-09T14:19:09;99515.56;;;23.95
43802;BMP280;29429;51.074;13.764;2022-09-09T14:21:36;99509.13;;;24.04
43802;BMP280;29429;51.074;13.764;2022-09-09T14:24:03;99505.47;;;24.14
43802;BMP280;29429;51.074;13.764;2022-09-09T14:26:31;99499.00;;;24.23
43802;BMP280;29429;51.074;13.764;2022-09-09T14:28:58;99484.38;;;24.33
43802;BMP280;29429;51.074;13.764;2022-09-09T14:31:26;99487.72;;;24.44
43802;BMP280;29429;51.074;13.764;2022-09-09T14:33:53;99487.81;;;24.52
43802;BMP280;29429;51.074;13.764;2022-09-09T14:36:20;99488.03;;;24.56
43802;BMP280;29429;51.074;13.764;2022-09-09T14:38:48;99486.13;;;24.56
43802;BMP280;29429;51.074;13.764;2022-09-09T14:41:18;99486.00;;;24.48
43802;BMP280;29429;51.074;13.764;2022-09-09T14:43:46;99482.88;;;24.41
43802;BMP280;29429;51.074;13.764;2022-09-09T14:46:17;99481.34;;;24.35
43802;BMP280;29429;51.074;13.764;2022-09-09T14:48:44;99473.88;;;24.27
43802;BMP280;29429;51.074;13.764;2022-09-09T14:51:21;99471.25;;;24.21
43802;BMP280;29429;51.074;13.764;2022-09-09T14:53:56;99479.53;;;24.16
43802;BMP280;29429;51.074;13.764;2022-09-09T14:56:27;99482.34;;;24.11
43802;BMP280;29429;51.074;13.764;2022-09-09T14:58:58;99486.00;;;24.02
43802;BMP280;29429;51.074;13.764;2022-09-09T15:01:29;99480.50;;;23.88
43802;BMP280;29429;51.074;13.764;2022-09-09T15:04:03;99482.69;;;23.73
43802;BMP280;29429;51.074;13.764;2022-09-09T15:06:34;99486.97;;;23.60
43802;BMP280;29429;51.074;13.764;2022-09-09T15:09:01;99497.22;;;23.49
43802;BMP280;29429;51.074;13.764;2022-09-09T15:11:33;99494.28;;;23.46
43802;BMP280;29429;51.074;13.764;2022-09-09T15:14:06;99483.69;;;23.44
43802;BMP280;29429;51.074;13.764;2022-09-09T15:16:34;99480.66;;;23.46
43802;BMP280;29429;51.074;13.764;2022-09-09T15:19:02;99485.09;;;23.42
43802;BMP280;29429;51.074;13.764;2022-09-09T15:21:36;99479.94;;;23.40
43802;BMP280;29429;51.074;13.764;2022-09-09T15:24:05;99487.31;;;23.40
43802;BMP280;29429;51.074;13.764;2022-09-09T15:26:36;99490.03;;;23.40
43802;BMP280;29429;51.074;13.764;2022-09-09T15:29:06;99491.34;;;23.42
43802;BMP280;29429;51.074;13.764;2022-09-09T15:31:36;99494.81;;;23.48
43802;BMP280;29429;51.074;13.764;2022-09-09T15:34:07;99485.97;;;23.56
43802;BMP280;29429;51.074;13.764;2022-09-09T15:36:42;99491.34;;;23.61
43802;BMP280;29429;51.074;13.764;2022-09-09T15:39:16;99492.84;;;23.67
43802;BMP280;29429;51.074;13.764;2022-09-09T15:41:45;99495.81;;;23.71
43802;BMP280;29429;51.074;13.764;2022-09-09T15:44:14;99500.75;;;23.69
43802;BMP280;29429;51.074;13.764;2022-09-09T15:46:42;99504.78;;;23.71
43802;BMP280;29429;51.074;13.764;2022-09-09T15:49:22;99500.75;;;23.69
43802;BMP280;29429;51.074;13.764;2022-09-09T15:51:58;99502.50;;;23.59
43802;BMP280;29429;51.074;13.764;2022-09-09T15:54:26;99505.38;;;23.49
43802;BMP280;29429;51.074;13.764;2022-09-09T15:56:59;99500.59;;;23.41
43802;BMP280;29429;51.074;13.764;2022-09-09T15:59:30;99500.81;;;23.26
43802;BMP280;29429;51.074;13.764;2022-09-09T16:01:58;99499.03;;;23.17
43802;BMP280;29429;51.074;13.764;2022-09-09T16:04:28;99501.03;;;23.11
43802;BMP280;29429;51.074;13.764;2022-09-09T16:07:04;99500.34;;;23.00
43802;BMP280;29429;51.074;13.764;2022-09-09T16:09:33;99509.75;;;22.89
43802;BMP280;29429;51.074;13.764;2022-09-09T16:12:03;99500.59;;;22.80
43802;BMP280;29429;51.074;13.764;2022-09-09T16:14:33;99505.59;;;22.73
43802;BMP280;29429;51.074;13.764;2022-09-09T16:17:04;99506.50;;;22.64
43802;BMP280;29429;51.074;13.764;2022-09-09T16:19:32;99500.88;;;22.55
43802;BMP280;29429;51.074;13.764;2022-09-09T16:21:59;99504.50;;;22.45
43802;BMP280;29429;51.074;13.764;2022-09-09T16:24:26;99496.97;;;22.37